sensor_id;sensor_type;location;lat;lon;timestamp;temperature;humidity
15072;DHT22;7635;56.696;13.002;2023-02-01T00:02:18;4.20;99.90
15072;DHT22;7635;56.696;13.002;2023-02-01T00:04:44;4.20;99.90
15072;DHT22;7635;56.696;13.002;2023-02-01T00:07:11;4.30;99.90
15072;DHT22;7635;56.696;13.002;2023-02-01T00:09:39;4.20;99.90
15072;DHT22;7635;56.696;13.002;2023-02-01T00:12:06;4.20;99.90
15072;DHT22;7635;56.696;13.002;2023-02-01T00:14:32;4.20;99.90
15072;DHT22;7635;56.696;13.002;2023-02-01T00:17:04;4.20;99.90
15072;DHT22;7635;56.696;13.002;2023-02-01T00:19:31;4.30;99.90
15072;DHT22;7635;56.696;13.002;2023-02-01T00:21:58;4.30;99.90
15072;DHT22;7635;56.696;13.002;2023-02-01T00:24:25;4.30;99.90
15072;DHT22;7635;56.696;13.002;2023-02-01T00:26:53;4.30;99.90
15072;DHT22;7635;56.696;13.002;2023-02-01T00:29:21;4.30;99.90
15072;DHT22;7635;56.696;13.002;2023-02-01T00:31:49;4.40;99.90
15072;DHT22;7635;56.696;13.002;2023-02-01T00:34:17;4.40;99.90
15072;DHT22;7635;56.696;13.002;2023-02-01T00:36:44;4.40;99.90
15072;DHT22;7635;56.696;13.002;2023-02-01T00:39:11;4.40;99.90
15072;DHT22;7635;56.696;13.002;2023-02-01T00:41:38;4.40;99.90
15072;DHT22;7635;56.696;13.002;2023-02-01T00:44:07;4.50;99.90
15072;DHT22;7635;56.696;13.002;2023-02-01T00:46:33;4.50;99.90
15072;DHT22;7635;56.696;13.002;2023-02-01T00:49:00;4.50;99.90
15072;DHT22;7635;56.696;13.002;2023-02-01T00:51:28;4.50;99.90
15072;DHT22;7635;56.696;13.002;2023-02-01T00:53:55;4.50;99.90
15072;DHT22;7635;56.696;13.002;2023-02-01T00:56:22;4.50;99.90
15072;DHT22;7635;56.696;13.002;2023-02-01T00:58:49;4.50;99.90
15072;DHT22;7635;56.696;13.002;2023-02-01T01:01:19;4.50;99.90
15072;DHT22;7635;56.696;13.002;2023-02-01T01:03:47;4.50;99.90
15072;DHT22;7635;56.696;13.002;2023-02-01T01:06:18;4.50;99.90
15072;DHT22;7635;56.696;13.002;2023-02-01T01:08:46;4.50;99.90
15072;DHT22;7635;56.696;13.002;2023-02-01T01:11:15;4.50;99.90
15072;DHT22;7635;56.696;13.002;2023-02-01T01:13:42;4.50;99.90
15072;DHT22;7635;56.696;13.002;2023-02-01T01:16:10;4.50;99.90
15072;DHT22;7635;56.696;13.002;2023-02-01T01:18:38;4.50;99.90
15072;DHT22;7635;56.696;13.002;2023-02-01T01:21:05;4.50;99.90
15072;DHT22;7635;56.696;13.002;2023-02-01T01:23:32;4.60;99.90
15072;DHT22;7635;56.696;13.002;2023-02-01T01:26:00;4.60;99.90
15072;DHT22;7635;56.696;13.002;2023-02-01T01:28:26;4.60;99.90
15072;DHT22;7635;56.696;13.002;2023-02-01T01:30:53;4.60;99.90
15072;DHT22;7635;56.696;13.002;2023-02-01T01:33:20;4.60;99.90
15072;DHT22;7635;56.696;13.002;2023-02-01T01:35:48;4.60;99.90
15072;DHT22;7635;56.696;13.002;2023-02-01T01:38:14;4.60;99.90
15072;DHT22;7635;56.696;13.002;2023-02-01T01:40:45;4.60;99.90
15072;DHT22;7635;56.696;13.002;2023-02-01T01:43:13;4.60;99.90
15072;DHT22;7635;56.696;13.002;2023-02-01T01:45:40;4.60;99.90
15072;DHT22;7635;56.696;13.002;2023-02-01T01:48:11;4.60;99.90
15072;DHT22;7635;56.696;13.002;2023-02-01T01:50:42;4.60;99.90
15072;DHT22;7635;56.696;13.002;2023-02-01T01:53:14;4.60;99.90
15072;DHT22;7635;56.696;13.002;2023-02-01T01:55:44;4.60;99.90
15072;DHT22;7635;56.696;13.002;2023-02-01T01:58:15;4.60;99.90
15072;DHT22;7635;56.696;13.002;2023-02-01T02:00:43;4.60;99.90
15072;DHT22;7635;56.696;13.002;2023-02-01T02:03:14;4.60;99.90
15072;DHT22;7635;56.696;13.002;2023-02-01T02:05:41;4.60;99.90
15072;DHT22;7635;56.696;13.002;2023-02-01T02:08:08;4.60;99.90
15072;DHT22;7635;56.696;13.002;2023-02-01T02:10:36;4.60;99.90
15072;DHT22;7635;56.696;13.002;2023-02-01T02:13:21;4.60;99.90
15072;DHT22;7635;56.696;13.002;2023-02-01T02:15:55;4.60;99.90
15072;DHT22;7635;56.696;13.002;2023-02-01T02:18:32;4.60;99.90
15072;DHT22;7635;56.696;13.002;2023-02-01T02:21:12;4.60;99.90
15072;DHT22;7635;56.696;13.002;2023-02-01T02:24:08;4.60;99.90
15072;DHT22;7635;56.696;13.002;2023-02-01T02:27:00;4.60;99.90
15072;DHT22;7635;56.696;13.002;2023-02-01T02:29:59;4.60;99.90
15072;DHT22;7635;56.696;13.002;2023-02-01T02:32:44;4.60;99.90
15072;DHT22;7635;56.696;13.002;2023-02-01T02:35:22;4.60;99.90
15072;DHT22;7635;56.696;13.002;2023-02-01T02:37:57;4.50;99.90
15072;DHT22;7635;56.696;13.002;2023-02-01T02:40:32;4.50;99.90
15072;DHT22;7635;56.696;13.002;2023-02-01T02:43:07;4.50;99.90
15072;DHT22;7635;56.696;13.002;2023-02-01T02:45:57;4.50;99.90
15072;DHT22;7635;56.696;13.002;2023-02-01T02:48:47;4.50;99.90
15072;DHT22;7635;56.696;13.002;2023-02-01T02:51:23;4.50;99.90
15072;DHT22;7635;56.696;13.002;2023-02-01T02:54:12;4.50;99.90
15072;DHT22;7635;56.696;13.002;2023-02-01T02:56:58;4.50;99.90
15072;DHT22;7635;56.696;13.002;2023-02-01T02:59:44;4.60;99.90
15072;DHT22;7635;56.696;13.002;2023-02-01T03:02:30;4.50;99.90
15072;DHT22;7635;56.696;13.002;2023-02-01T03:05:15;4.60;99.90
15072;DHT22;7635;56.696;13.002;2023-02-01T03:08:00;4.50;99.90
15072;DHT22;7635;56.696;13.002;2023-02-01T03:10:35;4.50;99.90
15072;DHT22;7635;56.696;13.002;2023-02-01T03:13:06;4.50;99.90
15072;DHT22;7635;56.696;13.002;2023-02-01T03:15:36;4.60;99.90
15072;DHT22;7635;56.696;13.002;2023-02-01T03:18:08;4.60;99.90
15072;DHT22;7635;56.696;13.002;2023-02-01T03:20:38;4.60;99.90
15072;DHT22;7635;56.696;13.002;2023-02-01T03:23:09;4.60;99.90
15072;DHT22;7635;56.696;13.002;2023-02-01T03:25:38;4.60;99.90
15072;DHT22;7635;56.696;13.002;2023-02-01T03:28:08;4.60;99.90
15072;DHT22;7635;56.696;13.002;2023-02-01T03:30:38;4.60;99.90
15072;DHT22;7635;56.696;13.002;2023-02-01T03:33:09;4.60;99.90
15072;DHT22;7635;56.696;13.002;2023-02-01T03:35:43;4.60;99.90
15072;DHT22;7635;56.696;13.002;2023-02-01T03:38:18;4.60;99.90
15072;DHT22;7635;56.696;13.002;2023-02-01T03:40:51;4.50;99.90
15072;DHT22;7635;56.696;13.002;2023-02-01T03:43:20;4.50;99.90
15072;DHT22;7635;56.696;13.002;2023-02-01T03:45:50;4.40;99.90
15072;DHT22;7635;56.696;13.002;2023-02-01T03:48:19;4.40;99.90
15072;DHT22;7635;56.696;13.002;2023-02-01T03:50:51;4.40;99.90
15072;DHT22;7635;56.696;13.002;2023-02-01T03:53:22;4.30;99.90
15072;DHT22;7635;56.696;13.002;2023-02-01T03:55:51;4.30;99.90
15072;DHT22;7635;56.696;13.002;2023-02-01T03:58:20;4.20;99.90
15072;DHT22;7635;56.696;13.002;2023-02-01T04:00:51;4.20;99.90
15072;DHT22;7635;56.696;13.002;2023-02-01T04:03:19;4.20;99.90
15072;DHT22;7635;56.696;13.002;2023-02-01T04:05:47;4.20;99.90
15072;DHT22;7635;56.696;13.002;2023-02-01T04:08:13;4.10;99.90
15072;DHT22;7635;56.696;13.002;2023-02-01T04:10:41;4.10;99.90
15072;DHT22;7635;56.696;13.002;2023-02-01T04:13:09;4.10;99.90
15072;DHT22;7635;56.696;13.002;2023-02-01T04:15:36;4.20;99.90
15072;DHT22;7635;56.696;13.002;2023-02-01T04:18:03;4.20;99.90
15072;DHT22;7635;56.696;13.002;2023-02-01T04:20:30;4.20;99.90
15072;DHT22;7635;56.696;13.002;2023-02-01T04:22:56;4.20;99.90
15072;DHT22;7635;56.696;13.002;2023-02-01T04:25:23;4.20;99.90
15072;DHT22;7635;56.696;13.002;2023-02-01T04:27:51;4.20;99.90
15072;DHT22;7635;56.696;13.002;2023-02-01T04:30:18;4.20;99.90
15072;DHT22;7635;56.696;13.002;2023-02-01T04:32:44;4.20;99.90
15072;DHT22;7635;56.696;13.002;2023-02-01T04:35:11;4.20;99.90
15072;DHT22;7635;56.696;13.002;2023-02-01T04:37:38;4.20;99.90
15072;DHT22;7635;56.696;13.002;2023-02-01T04:40:06;4.20;99.90
15072;DHT22;7635;56.696;13.002;2023-02-01T04:42:32;4.20;99.90
15072;DHT22;7635;56.696;13.002;2023-02-01T04:45:02;4.20;99.90
15072;DHT22;7635;56.696;13.002;2023-02-01T04:47:29;4.20;99.90
15072;DHT22;7635;56.696;13.002;2023-02-01T04:49:55;4.20;99.90
15072;DHT22;7635;56.696;13.002;2023-02-01T04:52:22;4.20;99.90
15072;DHT22;7635;56.696;13.002;2023-02-01T04:54:48;4.20;99.90
15072;DHT22;7635;56.696;13.002;2023-02-01T04:57:15;4.20;99.90
15072;DHT22;7635;56.696;13.002;2023-02-01T04:59:42;4.20;99.90
15072;DHT22;7635;56.696;13.002;2023-02-01T05:02:10;4.20;99.90
15072;DHT22;7635;56.696;13.002;2023-02-01T05:04:36;4.20;99.90
15072;DHT22;7635;56.696;13.002;2023-02-01T05:07:03;4.20;99.90
15072;DHT22;7635;56.696;13.002;2023-02-01T05:09:30;4.20;99.90
15072;DHT22;7635;56.696;13.002;2023-02-01T05:11:56;4.20;99.90
15072;DHT22;7635;56.696;13.002;2023-02-01T05:14:41;4.20;99.90
15072;DHT22;7635;56.696;13.002;2023-02-01T05:17:07;4.20;99.90
15072;DHT22;7635;56.696;13.002;2023-02-01T05:19:35;4.30;99.90
15072;DHT22;7635;56.696;13.002;2023-02-01T05:22:02;4.30;99.90
15072;DHT22;7635;56.696;13.002;2023-02-01T05:24:29;4.30;99.90
15072;DHT22;7635;56.696;13.002;2023-02-01T05:26:55;4.30;99.90
15072;DHT22;7635;56.696;13.002;2023-02-01T05:29:22;4.30;99.90
15072;DHT22;7635;56.696;13.002;2023-02-01T05:31:49;4.30;99.90
15072;DHT22;7635;56.696;13.002;2023-02-01T05:34:16;4.30;99.90
15072;DHT22;7635;56.696;13.002;2023-02-01T05:36:44;4.30;99.90
15072;DHT22;7635;56.696;13.002;2023-02-01T05:39:10;4.30;99.90
15072;DHT22;7635;56.696;13.002;2023-02-01T05:41:37;4.30;99.90
15072;DHT22;7635;56.696;13.002;2023-02-01T05:44:04;4.30;99.90
15072;DHT22;7635;56.696;13.002;2023-02-01T05:46:32;4.30;99.90
15072;DHT22;7635;56.696;13.002;2023-02-01T05:48:59;4.30;99.90
15072;DHT22;7635;56.696;13.002;2023-02-01T05:51:26;4.30;99.90
15072;DHT22;7635;56.696;13.002;2023-02-01T05:53:54;4.30;99.90
15072;DHT22;7635;56.696;13.002;2023-02-01T05:56:21;4.30;99.90
15072;DHT22;7635;56.696;13.002;2023-02-01T05:58:47;4.30;99.90
15072;DHT22;7635;56.696;13.002;2023-02-01T06:01:14;4.30;99.90
15072;DHT22;7635;56.696;13.002;2023-02-01T06:03:41;4.30;99.90
15072;DHT22;7635;56.696;13.002;2023-02-01T06:06:07;4.30;99.90
15072;DHT22;7635;56.696;13.002;2023-02-01T06:08:34;4.30;99.90
15072;DHT22;7635;56.696;13.002;2023-02-01T06:11:04;4.30;99.90
15072;DHT22;7635;56.696;13.002;2023-02-01T06:13:31;4.30;99.90
15072;DHT22;7635;56.696;13.002;2023-02-01T06:15:58;4.30;99.90
15072;DHT22;7635;56.696;13.002;2023-02-01T06:18:25;4.30;99.90
15072;DHT22;7635;56.696;13.002;2023-02-01T06:20:53;4.30;99.90
15072;DHT22;7635;56.696;13.002;2023-02-01T06:23:19;4.30;99.90
15072;DHT22;7635;56.696;13.002;2023-02-01T06:25:50;4.30;99.90
15072;DHT22;7635;56.696;13.002;2023-02-01T06:28:18;4.20;99.90
15072;DHT22;7635;56.696;13.002;2023-02-01T06:30:45;4.20;99.90
15072;DHT22;7635;56.696;13.002;2023-02-01T06:33:13;4.20;99.90
15072;DHT22;7635;56.696;13.002;2023-02-01T06:35:41;4.20;99.90
15072;DHT22;7635;56.696;13.002;2023-02-01T06:38:09;4.10;99.90
15072;DHT22;7635;56.696;13.002;2023-02-01T06:40:36;4.10;99.90
15072;DHT22;7635;56.696;13.002;2023-02-01T06:43:03;4.10;99.90
15072;DHT22;7635;56.696;13.002;2023-02-01T06:45:31;4.10;99.90
15072;DHT22;7635;56.696;13.002;2023-02-01T06:47:58;4.00;99.90
15072;DHT22;7635;56.696;13.002;2023-02-01T06:50:26;4.00;99.90
15072;DHT22;7635;56.696;13.002;2023-02-01T06:52:52;4.00;99.90
15072;DHT22;7635;56.696;13.002;2023-02-01T06:55:19;4.00;99.90
15072;DHT22;7635;56.696;13.002;2023-02-01T06:57:46;3.90;99.90
15072;DHT22;7635;56.696;13.002;2023-02-01T07:00:13;3.90;99.90
15072;DHT22;7635;56.696;13.002;2023-02-01T07:02:41;3.90;99.90
15072;DHT22;7635;56.696;13.002;2023-02-01T07:05:08;3.90;99.90
15072;DHT22;7635;56.696;13.002;2023-02-01T07:07:35;4.00;99.90
15072;DHT22;7635;56.696;13.002;2023-02-01T07:10:02;3.90;99.90
15072;DHT22;7635;56.696;13.002;2023-02-01T07:12:29;3.90;99.90
15072;DHT22;7635;56.696;13.002;2023-02-01T07:14:55;4.00;99.90
15072;DHT22;7635;56.696;13.002;2023-02-01T07:17:22;4.00;99.90
15072;DHT22;7635;56.696;13.002;2023-02-01T07:19:51;4.10;99.90
15072;DHT22;7635;56.696;13.002;2023-02-01T07:22:18;4.10;99.90
15072;DHT22;7635;56.696;13.002;2023-02-01T07:24:44;4.10;99.90
15072;DHT22;7635;56.696;13.002;2023-02-01T07:27:11;4.10;99.90
15072;DHT22;7635;56.696;13.002;2023-02-01T07:29:38;4.10;99.90
15072;DHT22;7635;56.696;13.002;2023-02-01T07:32:05;4.10;99.90
15072;DHT22;7635;56.696;13.002;2023-02-01T07:34:31;4.10;99.90
15072;DHT22;7635;56.696;13.002;2023-02-01T07:37:00;4.10;99.90
15072;DHT22;7635;56.696;13.002;2023-02-01T07:39:28;4.10;99.90
15072;DHT22;7635;56.696;13.002;2023-02-01T07:41:57;4.20;99.90
15072;DHT22;7635;56.696;13.002;2023-02-01T07:44:24;4.20;99.90
15072;DHT22;7635;56.696;13.002;2023-02-01T07:46:50;4.20;99.90
15072;DHT22;7635;56.696;13.002;2023-02-01T07:49:17;4.20;99.90
15072;DHT22;7635;56.696;13.002;2023-02-01T07:51:44;4.20;99.90
15072;DHT22;7635;56.696;13.002;2023-02-01T07:54:12;4.20;99.90
15072;DHT22;7635;56.696;13.002;2023-02-01T07:56:38;4.20;99.90
15072;DHT22;7635;56.696;13.002;2023-02-01T07:59:05;4.20;99.90
15072;DHT22;7635;56.696;13.002;2023-02-01T08:01:33;4.20;99.90
15072;DHT22;7635;56.696;13.002;2023-02-01T08:04:00;4.20;99.90
15072;DHT22;7635;56.696;13.002;2023-02-01T08:06:29;4.30;99.90
15072;DHT22;7635;56.696;13.002;2023-02-01T08:08:56;4.30;99.90
15072;DHT22;7635;56.696;13.002;2023-02-01T08:11:25;4.30;99.90
15072;DHT22;7635;56.696;13.002;2023-02-01T08:13:55;4.30;99.90
15072;DHT22;7635;56.696;13.002;2023-02-01T08:16:22;4.30;99.90
15072;DHT22;7635;56.696;13.002;2023-02-01T08:18:50;4.30;99.90
15072;DHT22;7635;56.696;13.002;2023-02-01T08:21:18;4.30;99.90
15072;DHT22;7635;56.696;13.002;2023-02-01T08:23:46;4.40;99.90
15072;DHT22;7635;56.696;13.002;2023-02-01T08:26:14;4.30;99.90
15072;DHT22;7635;56.696;13.002;2023-02-01T08:28:44;4.40;99.90
15072;DHT22;7635;56.696;13.002;2023-02-01T08:31:13;4.40;99.90
15072;DHT22;7635;56.696;13.002;2023-02-01T08:33:41;4.40;99.90
15072;DHT22;7635;56.696;13.002;2023-02-01T08:36:09;4.40;99.90
15072;DHT22;7635;56.696;13.002;2023-02-01T08:38:37;4.50;99.90
15072;DHT22;7635;56.696;13.002;2023-02-01T08:41:05;4.50;99.90
15072;DHT22;7635;56.696;13.002;2023-02-01T08:43:32;4.60;99.90
15072;DHT22;7635;56.696;13.002;2023-02-01T08:46:00;4.60;99.90
15072;DHT22;7635;56.696;13.002;2023-02-01T08:48:27;4.60;99.90
15072;DHT22;7635;56.696;13.002;2023-02-01T08:50:53;4.60;99.90
15072;DHT22;7635;56.696;13.002;2023-02-01T08:53:20;4.60;99.90
15072;DHT22;7635;56.696;13.002;2023-02-01T08:55:47;4.60;99.90
15072;DHT22;7635;56.696;13.002;2023-02-01T08:58:14;4.60;99.90
15072;DHT22;7635;56.696;13.002;2023-02-01T09:00:42;4.70;99.90
15072;DHT22;7635;56.696;13.002;2023-02-01T09:03:11;4.70;99.90
15072;DHT22;7635;56.696;13.002;2023-02-01T09:05:38;4.70;99.90
15072;DHT22;7635;56.696;13.002;2023-02-01T09:08:06;4.70;99.90
15072;DHT22;7635;56.696;13.002;2023-02-01T09:10:33;4.70;99.90
15072;DHT22;7635;56.696;13.002;2023-02-01T09:13:00;4.80;99.90
15072;DHT22;7635;56.696;13.002;2023-02-01T09:15:28;4.90;99.90
15072;DHT22;7635;56.696;13.002;2023-02-01T09:17:55;4.90;99.90
15072;DHT22;7635;56.696;13.002;2023-02-01T09:20:23;5.00;99.90
15072;DHT22;7635;56.696;13.002;2023-02-01T09:22:50;5.00;99.90
15072;DHT22;7635;56.696;13.002;2023-02-01T09:25:17;5.00;99.90
15072;DHT22;7635;56.696;13.002;2023-02-01T09:27:44;5.10;99.90
15072;DHT22;7635;56.696;13.002;2023-02-01T09:30:11;5.10;99.90
15072;DHT22;7635;56.696;13.002;2023-02-01T09:32:38;5.10;99.90
15072;DHT22;7635;56.696;13.002;2023-02-01T09:35:05;5.10;99.90
15072;DHT22;7635;56.696;13.002;2023-02-01T09:37:33;5.10;99.90
15072;DHT22;7635;56.696;13.002;2023-02-01T09:40:01;5.10;99.90
15072;DHT22;7635;56.696;13.002;2023-02-01T09:42:43;5.10;99.90
15072;DHT22;7635;56.696;13.002;2023-02-01T09:45:20;5.20;99.90
15072;DHT22;7635;56.696;13.002;2023-02-01T09:47:51;5.20;99.90
15072;DHT22;7635;56.696;13.002;2023-02-01T09:50:22;5.20;99.90
15072;DHT22;7635;56.696;13.002;2023-02-01T09:52:57;5.30;99.90
15072;DHT22;7635;56.696;13.002;2023-02-01T09:55:32;5.30;99.90
15072;DHT22;7635;56.696;13.002;2023-02-01T09:58:02;5.40;99.90
15072;DHT22;7635;56.696;13.002;2023-02-01T10:00:33;5.60;99.90
15072;DHT22;7635;56.696;13.002;2023-02-01T10:03:01;5.70;99.90
15072;DHT22;7635;56.696;13.002;2023-02-01T10:08:31;6.10;99.90
15072;DHT22;7635;56.696;13.002;2023-02-01T10:11:07;6.20;99.90
15072;DHT22;7635;56.696;13.002;2023-02-01T10:13:46;6.40;99.90
15072;DHT22;7635;56.696;13.002;2023-02-01T10:16:24;6.30;99.90
15072;DHT22;7635;56.696;13.002;2023-02-01T10:19:01;6.20;99.90
15072;DHT22;7635;56.696;13.002;2023-02-01T10:21:42;6.00;99.90
15072;DHT22;7635;56.696;13.002;2023-02-01T10:24:28;5.90;99.90
15072;DHT22;7635;56.696;13.002;2023-02-01T10:27:02;5.70;99.90
15072;DHT22;7635;56.696;13.002;2023-02-01T10:29:34;5.70;99.90
15072;DHT22;7635;56.696;13.002;2023-02-01T10:32:01;5.60;99.90
15072;DHT22;7635;56.696;13.002;2023-02-01T10:34:31;5.50;99.90
15072;DHT22;7635;56.696;13.002;2023-02-01T10:37:02;5.50;99.90
15072;DHT22;7635;56.696;13.002;2023-02-01T10:39:35;5.50;99.90
15072;DHT22;7635;56.696;13.002;2023-02-01T10:42:03;5.50;99.90
15072;DHT22;7635;56.696;13.002;2023-02-01T10:44:31;5.50;99.90
15072;DHT22;7635;56.696;13.002;2023-02-01T10:47:00;5.50;99.90
15072;DHT22;7635;56.696;13.002;2023-02-01T10:49:33;5.50;99.90
15072;DHT22;7635;56.696;13.002;2023-02-01T10:52:10;5.60;99.90
15072;DHT22;7635;56.696;13.002;2023-02-01T10:54:40;5.50;99.90
15072;DHT22;7635;56.696;13.002;2023-02-01T10:57:08;5.60;99.90
15072;DHT22;7635;56.696;13.002;2023-02-01T10:59:35;5.60;99.90
15072;DHT22;7635;56.696;13.002;2023-02-01T11:02:15;5.70;99.90
15072;DHT22;7635;56.696;13.002;2023-02-01T11:04:44;5.70;99.90
15072;DHT22;7635;56.696;13.002;2023-02-01T11:07:17;5.70;99.90
15072;DHT22;7635;56.696;13.002;2023-02-01T11:09:51;5.80;99.90
15072;DHT22;7635;56.696;13.002;2023-02-01T11:12:29;5.70;99.90
15072;DHT22;7635;56.696;13.002;2023-02-01T11:15:11;5.60;99.90
15072;DHT22;7635;56.696;13.002;2023-02-01T11:17:40;5.60;99.90
15072;DHT22;7635;56.696;13.002;2023-02-01T11:20:16;5.60;99.90
15072;DHT22;7635;56.696;13.002;2023-02-01T11:22:46;5.50;99.90
15072;DHT22;7635;56.696;13.002;2023-02-01T11:25:16;5.50;99.90
15072;DHT22;7635;56.696;13.002;2023-02-01T11:27:44;5.50;99.90
15072;DHT22;7635;56.696;13.002;2023-02-01T11:30:15;5.50;99.90
15072;DHT22;7635;56.696;13.002;2023-02-01T11:32:42;5.50;99.90
15072;DHT22;7635;56.696;13.002;2023-02-01T11:35:15;5.50;99.90
15072;DHT22;7635;56.696;13.002;2023-02-01T11:37:44;5.50;99.90
15072;DHT22;7635;56.696;13.002;2023-02-01T11:40:26;5.50;99.90
15072;DHT22;7635;56.696;13.002;2023-02-01T11:42:55;5.40;99.90
15072;DHT22;7635;56.696;13.002;2023-02-01T11:45:26;5.40;99.90
15072;DHT22;7635;56.696;13.002;2023-02-01T11:47:54;5.40;99.90
15072;DHT22;7635;56.696;13.002;2023-02-01T11:50:28;5.40;99.90
15072;DHT22;7635;56.696;13.002;2023-02-01T11:53:09;5.30;99.90
15072;DHT22;7635;56.696;13.002;2023-02-01T11:55:56;5.30;99.90
15072;DHT22;7635;56.696;13.002;2023-02-01T11:58:36;5.30;99.90
15072;DHT22;7635;56.696;13.002;2023-02-01T12:01:23;5.40;99.90
15072;DHT22;7635;56.696;13.002;2023-02-01T12:04:30;5.40;99.90
15072;DHT22;7635;56.696;13.002;2023-02-01T12:07:09;5.50;99.90
15072;DHT22;7635;56.696;13.002;2023-02-01T12:09:51;5.50;99.90
15072;DHT22;7635;56.696;13.002;2023-02-01T12:12:25;5.50;99.90
15072;DHT22;7635;56.696;13.002;2023-02-01T12:15:22;5.50;99.90
15072;DHT22;7635;56.696;13.002;2023-02-01T12:18:05;5.60;99.90
15072;DHT22;7635;56.696;13.002;2023-02-01T12:20:52;5.50;99.90
15072;DHT22;7635;56.696;13.002;2023-02-01T12:23:33;5.60;99.90
15072;DHT22;7635;56.696;13.002;2023-02-01T12:26:12;5.60;99.90
15072;DHT22;7635;56.696;13.002;2023-02-01T12:29:05;5.60;99.90
15072;DHT22;7635;56.696;13.002;2023-02-01T12:31:44;5.60;99.90
15072;DHT22;7635;56.696;13.002;2023-02-01T12:34:32;5.60;99.90
15072;DHT22;7635;56.696;13.002;2023-02-01T12:37:11;5.50;99.90
15072;DHT22;7635;56.696;13.002;2023-02-01T12:39:44;5.50;99.90
15072;DHT22;7635;56.696;13.002;2023-02-01T12:42:17;5.50;99.90
15072;DHT22;7635;56.696;13.002;2023-02-01T12:44:50;5.50;99.90
15072;DHT22;7635;56.696;13.002;2023-02-01T12:47:24;5.40;99.90
15072;DHT22;7635;56.696;13.002;2023-02-01T12:49:55;5.40;99.90
15072;DHT22;7635;56.696;13.002;2023-02-01T12:52:27;5.30;99.90
15072;DHT22;7635;56.696;13.002;2023-02-01T12:55:03;5.20;99.90
15072;DHT22;7635;56.696;13.002;2023-02-01T12:57:35;5.20;99.90
15072;DHT22;7635;56.696;13.002;2023-02-01T13:00:12;5.20;99.90
15072;DHT22;7635;56.696;13.002;2023-02-01T13:02:43;5.20;99.90
15072;DHT22;7635;56.696;13.002;2023-02-01T13:05:16;5.20;99.90
15072;DHT22;7635;56.696;13.002;2023-02-01T13:07:47;5.20;99.90
15072;DHT22;7635;56.696;13.002;2023-02-01T13:10:18;5.10;99.90
15072;DHT22;7635;56.696;13.002;2023-02-01T13:12:51;5.10;99.90
15072;DHT22;7635;56.696;13.002;2023-02-01T13:15:24;5.20;99.90
15072;DHT22;7635;56.696;13.002;2023-02-01T13:17:55;5.10;99.90
15072;DHT22;7635;56.696;13.002;2023-02-01T13:20:28;5.20;99.90
15072;DHT22;7635;56.696;13.002;2023-02-01T13:23:00;5.20;99.90
15072;DHT22;7635;56.696;13.002;2023-02-01T13:25:33;5.20;99.90
15072;DHT22;7635;56.696;13.002;2023-02-01T13:28:04;5.10;99.90
15072;DHT22;7635;56.696;13.002;2023-02-01T13:30:45;5.10;99.90
15072;DHT22;7635;56.696;13.002;2023-02-01T13:33:29;5.10;99.90
15072;DHT22;7635;56.696;13.002;2023-02-01T13:39:34;5.20;99.90
15072;DHT22;7635;56.696;13.002;2023-02-01T13:42:04;5.20;99.90
15072;DHT22;7635;56.696;13.002;2023-02-01T13:44:36;5.30;99.90
15072;DHT22;7635;56.696;13.002;2023-02-01T13:47:16;5.20;99.90
15072;DHT22;7635;56.696;13.002;2023-02-01T13:49:44;5.30;99.90
15072;DHT22;7635;56.696;13.002;2023-02-01T13:52:28;5.30;99.90
15072;DHT22;7635;56.696;13.002;2023-02-01T13:55:14;5.20;99.90
15072;DHT22;7635;56.696;13.002;2023-02-01T13:57:42;5.20;99.90
15072;DHT22;7635;56.696;13.002;2023-02-01T14:00:24;5.20;99.90
15072;DHT22;7635;56.696;13.002;2023-02-01T14:03:15;5.10;99.90
15072;DHT22;7635;56.696;13.002;2023-02-01T14:06:01;5.10;99.90
15072;DHT22;7635;56.696;13.002;2023-02-01T14:08:41;5.10;99.90
15072;DHT22;7635;56.696;13.002;2023-02-01T14:11:36;5.10;99.90
15072;DHT22;7635;56.696;13.002;2023-02-01T14:23:23;5.10;99.90
15072;DHT22;7635;56.696;13.002;2023-02-01T14:26:05;5.00;99.90
15072;DHT22;7635;56.696;13.002;2023-02-01T14:28:36;5.00;99.90
15072;DHT22;7635;56.696;13.002;2023-02-01T14:31:15;5.00;99.90
15072;DHT22;7635;56.696;13.002;2023-02-01T14:33:43;5.00;99.90
15072;DHT22;7635;56.696;13.002;2023-02-01T14:36:13;5.00;99.90
15072;DHT22;7635;56.696;13.002;2023-02-01T14:38:47;5.00;99.90
15072;DHT22;7635;56.696;13.002;2023-02-01T14:41:28;5.00;99.90
15072;DHT22;7635;56.696;13.002;2023-02-01T14:44:25;5.00;99.90
15072;DHT22;7635;56.696;13.002;2023-02-01T14:47:29;5.00;99.90
15072;DHT22;7635;56.696;13.002;2023-02-01T14:50:04;4.90;99.90
15072;DHT22;7635;56.696;13.002;2023-02-01T14:52:38;4.90;99.90
15072;DHT22;7635;56.696;13.002;2023-02-01T14:55:13;5.00;99.90
15072;DHT22;7635;56.696;13.002;2023-02-01T14:57:43;5.00;99.90
15072;DHT22;7635;56.696;13.002;2023-02-01T15:00:19;5.00;99.90
15072;DHT22;7635;56.696;13.002;2023-02-01T15:02:48;4.90;99.90
15072;DHT22;7635;56.696;13.002;2023-02-01T15:05:30;4.90;99.90
15072;DHT22;7635;56.696;13.002;2023-02-01T15:08:03;4.90;99.90
15072;DHT22;7635;56.696;13.002;2023-02-01T15:10:32;5.00;99.90
15072;DHT22;7635;56.696;13.002;2023-02-01T15:13:00;4.90;99.90
15072;DHT22;7635;56.696;13.002;2023-02-01T15:15:26;4.90;99.90
15072;DHT22;7635;56.696;13.002;2023-02-01T15:17:54;4.90;99.90
15072;DHT22;7635;56.696;13.002;2023-02-01T15:20:23;4.90;99.90
15072;DHT22;7635;56.696;13.002;2023-02-01T15:22:55;4.90;99.90
15072;DHT22;7635;56.696;13.002;2023-02-01T15:25:26;4.90;99.90
15072;DHT22;7635;56.696;13.002;2023-02-01T15:27:53;4.90;99.90
15072;DHT22;7635;56.696;13.002;2023-02-01T15:30:22;4.90;99.90
15072;DHT22;7635;56.696;13.002;2023-02-01T15:32:50;4.90;99.90
15072;DHT22;7635;56.696;13.002;2023-02-01T15:35:40;4.90;99.90
15072;DHT22;7635;56.696;13.002;2023-02-01T15:38:39;4.90;99.90
15072;DHT22;7635;56.696;13.002;2023-02-01T15:41:10;4.90;99.90
15072;DHT22;7635;56.696;13.002;2023-02-01T15:43:40;4.90;99.90
15072;DHT22;7635;56.696;13.002;2023-02-01T15:46:10;4.90;99.90
15072;DHT22;7635;56.696;13.002;2023-02-01T15:48:42;4.80;99.90
15072;DHT22;7635;56.696;13.002;2023-02-01T15:51:17;4.80;99.90
15072;DHT22;7635;56.696;13.002;2023-02-01T15:53:47;4.80;99.90
15072;DHT22;7635;56.696;13.002;2023-02-01T15:56:16;4.80;99.90
15072;DHT22;7635;56.696;13.002;2023-02-01T15:58:51;4.70;99.90
15072;DHT22;7635;56.696;13.002;2023-02-01T16:01:18;4.70;99.90
15072;DHT22;7635;56.696;13.002;2023-02-01T16:03:46;4.70;99.90
15072;DHT22;7635;56.696;13.002;2023-02-01T16:06:27;4.70;99.90
15072;DHT22;7635;56.696;13.002;2023-02-01T16:08:55;4.70;99.90
15072;DHT22;7635;56.696;13.002;2023-02-01T16:11:26;4.70;99.90
15072;DHT22;7635;56.696;13.002;2023-02-01T16:13:55;4.70;99.90
15072;DHT22;7635;56.696;13.002;2023-02-01T16:16:22;4.60;99.90
15072;DHT22;7635;56.696;13.002;2023-02-01T16:18:49;4.60;99.90
15072;DHT22;7635;56.696;13.002;2023-02-01T16:21:16;4.70;99.90
15072;DHT22;7635;56.696;13.002;2023-02-01T16:23:42;4.70;99.90
15072;DHT22;7635;56.696;13.002;2023-02-01T16:26:09;4.60;99.90
15072;DHT22;7635;56.696;13.002;2023-02-01T16:28:38;4.60;99.90